sensor_id;sensor_type;location;lat;lon;timestamp;pressure;altitude;pressure_sealevel;temperature
75811;BMP280;64449;50.016;19.954;2023-05-07T00:00:18;98860.34;;;13.95
75811;BMP280;64449;50.016;19.954;2023-05-07T00:02:45;98859.11;;;13.95
75811;BMP280;64449;50.016;19.954;2023-05-07T00:05:10;98862.14;;;13.96
75811;BMP280;64449;50.016;19.954;2023-05-07T00:07:36;98866.03;;;13.95
75811;BMP280;64449;50.016;19.954;2023-05-07T00:10:02;98867.55;;;13.96
75811;BMP280;64449;50.016;19.954;2023-05-07T00:12:28;98871.31;;;13.97
75811;BMP280;64449;50.016;19.954;2023-05-07T00:14:57;98871.23;;;13.98
75811;BMP280;64449;50.016;19.954;2023-05-07T00:17:23;98871.55;;;13.99
75811;BMP280;64449;50.016;19.954;2023-05-07T00:19:48;98873.08;;;14.00
75811;BMP280;64449;50.016;19.954;2023-05-07T00:22:14;98873.27;;;14.01
75811;BMP280;64449;50.016;19.954;2023-05-07T00:24:39;98871.85;;;14.01
75811;BMP280;64449;50.016;19.954;2023-05-07T00:27:04;98871.56;;;14.02
75811;BMP280;64449;50.016;19.954;2023-05-07T00:29:30;98872.34;;;14.01
75811;BMP280;64449;50.016;19.954;2023-05-07T00:31:56;98871.66;;;14.02
75811;BMP280;64449;50.016;19.954;2023-05-07T00:34:21;98878.61;;;14.03
75811;BMP280;64449;50.016;19.954;2023-05-07T00:36:47;98876.12;;;14.03
75811;BMP280;64449;50.016;19.954;2023-05-07T00:39:13;98876.68;;;14.02
75811;BMP280;64449;50.016;19.954;2023-05-07T00:41:38;98879.98;;;14.03
75811;BMP280;64449;50.016;19.954;2023-05-07T00:44:03;98881.33;;;14.03
75811;BMP280;64449;50.016;19.954;2023-05-07T00:46:30;98885.09;;;14.02
75811;BMP280;64449;50.016;19.954;2023-05-07T00:48:56;98886.14;;;14.01
75811;BMP280;64449;50.016;19.954;2023-05-07T00:51:23;98887.86;;;14.01
75811;BMP280;64449;50.016;19.954;2023-05-07T00:53:50;98886.87;;;13.98
75811;BMP280;64449;50.016;19.954;2023-05-07T00:56:15;98888.65;;;13.97
75811;BMP280;64449;50.016;19.954;2023-05-07T00:58:41;98889.42;;;13.97
75811;BMP280;64449;50.016;19.954;2023-05-07T01:01:06;98888.73;;;13.97
75811;BMP280;64449;50.016;19.954;2023-05-07T01:03:32;98887.73;;;13.95
75811;BMP280;64449;50.016;19.954;2023-05-07T01:05:59;98893.79;;;13.94
75811;BMP280;64449;50.016;19.954;2023-05-07T01:08:25;98892.73;;;13.94
75811;BMP280;64449;50.016;19.954;2023-05-07T01:10:54;98888.64;;;13.92
75811;BMP280;64449;50.016;19.954;2023-05-07T01:13:20;98889.16;;;13.91
75811;BMP280;64449;50.016;19.954;2023-05-07T01:15:46;98891.37;;;13.87
75811;BMP280;64449;50.016;19.954;2023-05-07T01:18:11;98897.38;;;13.83
75811;BMP280;64449;50.016;19.954;2023-05-07T01:20:37;98897.77;;;13.79
75811;BMP280;64449;50.016;19.954;2023-05-07T01:23:03;98895.04;;;13.74
75811;BMP280;64449;50.016;19.954;2023-05-07T01:25:29;98892.35;;;13.68
75811;BMP280;64449;50.016;19.954;2023-05-07T01:27:54;98890.90;;;13.64
75811;BMP280;64449;50.016;19.954;2023-05-07T01:30:21;98896.55;;;13.59
75811;BMP280;64449;50.016;19.954;2023-05-07T01:32:53;98898.16;;;13.54
75811;BMP280;64449;50.016;19.954;2023-05-07T01:35:24;98898.33;;;13.51
75811;BMP280;64449;50.016;19.954;2023-05-07T01:37:52;98901.48;;;13.51
75811;BMP280;64449;50.016;19.954;2023-05-07T01:40:18;98903.32;;;13.52
75811;BMP280;64449;50.016;19.954;2023-05-07T01:42:45;98906.02;;;13.52
75811;BMP280;64449;50.016;19.954;2023-05-07T01:45:11;98904.38;;;13.52
75811;BMP280;64449;50.016;19.954;2023-05-07T01:47:37;98902.77;;;13.50
75811;BMP280;64449;50.016;19.954;2023-05-07T01:50:05;98906.16;;;13.49
75811;BMP280;64449;50.016;19.954;2023-05-07T01:52:31;98910.05;;;13.46
75811;BMP280;64449;50.016;19.954;2023-05-07T01:54:56;98911.92;;;13.45
75811;BMP280;64449;50.016;19.954;2023-05-07T01:57:21;98909.83;;;13.44
75811;BMP280;64449;50.016;19.954;2023-05-07T01:59:47;98911.55;;;13.43
75811;BMP280;64449;50.016;19.954;2023-05-07T02:02:12;98913.58;;;13.42
75811;BMP280;64449;50.016;19.954;2023-05-07T02:04:37;98909.95;;;13.41
75811;BMP280;64449;50.016;19.954;2023-05-07T02:07:03;98912.95;;;13.40
75811;BMP280;64449;50.016;19.954;2023-05-07T02:09:29;98907.46;;;13.37
75811;BMP280;64449;50.016;19.954;2023-05-07T02:11:55;98914.57;;;13.34
75811;BMP280;64449;50.016;19.954;2023-05-07T02:14:20;98911.95;;;13.30
75811;BMP280;64449;50.016;19.954;2023-05-07T02:16:46;98911.71;;;13.28
75811;BMP280;64449;50.016;19.954;2023-05-07T02:19:11;98909.55;;;13.24
75811;BMP280;64449;50.016;19.954;2023-05-07T02:21:36;98911.42;;;13.20
75811;BMP280;64449;50.016;19.954;2023-05-07T02:24:02;98912.88;;;13.15
75811;BMP280;64449;50.016;19.954;2023-05-07T02:26:27;98910.69;;;13.13
75811;BMP280;64449;50.016;19.954;2023-05-07T02:28:53;98913.41;;;13.10
75811;BMP280;64449;50.016;19.954;2023-05-07T02:31:19;98919.86;;;13.08
75811;BMP280;64449;50.016;19.954;2023-05-07T02:33:44;98925.97;;;13.05
75811;BMP280;64449;50.016;19.954;2023-05-07T02:36:11;98929.74;;;13.02
75811;BMP280;64449;50.016;19.954;2023-05-07T02:38:37;98933.02;;;13.02
75811;BMP280;64449;50.016;19.954;2023-05-07T02:41:03;98927.23;;;12.99
75811;BMP280;64449;50.016;19.954;2023-05-07T02:43:28;98929.46;;;12.94
75811;BMP280;64449;50.016;19.954;2023-05-07T02:46:04;98930.05;;;12.91
75811;BMP280;64449;50.016;19.954;2023-05-07T02:48:29;98931.71;;;12.88
75811;BMP280;64449;50.016;19.954;2023-05-07T02:50:55;98933.20;;;12.85
75811;BMP280;64449;50.016;19.954;2023-05-07T02:53:20;98930.46;;;12.83
75811;BMP280;64449;50.016;19.954;2023-05-07T02:55:46;98931.48;;;12.80
75811;BMP280;64449;50.016;19.954;2023-05-07T02:58:11;98931.35;;;12.77
75811;BMP280;64449;50.016;19.954;2023-05-07T03:00:36;98933.71;;;12.74
75811;BMP280;64449;50.016;19.954;2023-05-07T03:03:02;98936.05;;;12.72
75811;BMP280;64449;50.016;19.954;2023-05-07T03:05:27;98938.27;;;12.70
75811;BMP280;64449;50.016;19.954;2023-05-07T03:07:53;98937.63;;;12.68
75811;BMP280;64449;50.016;19.954;2023-05-07T03:10:18;98940.27;;;12.65
75811;BMP280;64449;50.016;19.954;2023-05-07T03:12:43;98941.55;;;12.62
75811;BMP280;64449;50.016;19.954;2023-05-07T03:15:09;98944.27;;;12.61
75811;BMP280;64449;50.016;19.954;2023-05-07T03:17:36;98948.17;;;12.59
75811;BMP280;64449;50.016;19.954;2023-05-07T03:20:02;98946.06;;;12.57
75811;BMP280;64449;50.016;19.954;2023-05-07T03:22:27;98948.10;;;12.55
75811;BMP280;64449;50.016;19.954;2023-05-07T03:24:53;98949.59;;;12.54
75811;BMP280;64449;50.016;19.954;2023-05-07T03:27:18;98952.17;;;12.51
75811;BMP280;64449;50.016;19.954;2023-05-07T03:29:43;98951.28;;;12.50
75811;BMP280;64449;50.016;19.954;2023-05-07T03:32:09;98955.73;;;12.48
75811;BMP280;64449;50.016;19.954;2023-05-07T03:34:34;98955.34;;;12.47
75811;BMP280;64449;50.016;19.954;2023-05-07T03:37:00;98961.23;;;12.45
75811;BMP280;64449;50.016;19.954;2023-05-07T03:39:25;98963.45;;;12.45
75811;BMP280;64449;50.016;19.954;2023-05-07T03:41:51;98965.23;;;12.45
75811;BMP280;64449;50.016;19.954;2023-05-07T03:44:16;98970.15;;;12.45
75811;BMP280;64449;50.016;19.954;2023-05-07T03:46:41;98973.03;;;12.43
75811;BMP280;64449;50.016;19.954;2023-05-07T03:49:07;98975.27;;;12.41
75811;BMP280;64449;50.016;19.954;2023-05-07T03:51:32;98978.19;;;12.40
75811;BMP280;64449;50.016;19.954;2023-05-07T03:53:57;98979.98;;;12.38
75811;BMP280;64449;50.016;19.954;2023-05-07T03:56:23;98985.09;;;12.36
75811;BMP280;64449;50.016;19.954;2023-05-07T03:58:52;98989.72;;;12.35
75811;BMP280;64449;50.016;19.954;2023-05-07T04:01:17;98989.08;;;12.32
75811;BMP280;64449;50.016;19.954;2023-05-07T04:03:43;98992.04;;;12.28
75811;BMP280;64449;50.016;19.954;2023-05-07T04:06:08;98992.30;;;12.26
75811;BMP280;64449;50.016;19.954;2023-05-07T04:08:33;98993.78;;;12.24
75811;BMP280;64449;50.016;19.954;2023-05-07T04:10:59;98996.80;;;12.21
75811;BMP280;64449;50.016;19.954;2023-05-07T04:13:25;98998.33;;;12.19
75811;BMP280;64449;50.016;19.954;2023-05-07T04:15:55;98998.50;;;12.17
75811;BMP280;64449;50.016;19.954;2023-05-07T04:18:20;99006.83;;;12.15
75811;BMP280;64449;50.016;19.954;2023-05-07T04:20:47;99006.11;;;12.14
75811;BMP280;64449;50.016;19.954;2023-05-07T04:23:13;99008.87;;;12.12
75811;BMP280;64449;50.016;19.954;2023-05-07T04:25:38;99012.92;;;12.10
75811;BMP280;64449;50.016;19.954;2023-05-07T04:28:04;99015.30;;;12.09
75811;BMP280;64449;50.016;19.954;2023-05-07T04:30:29;99015.55;;;12.07
75811;BMP280;64449;50.016;19.954;2023-05-07T04:32:55;99017.20;;;12.05
75811;BMP280;64449;50.016;19.954;2023-05-07T04:35:21;99018.67;;;12.03
75811;BMP280;64449;50.016;19.954;2023-05-07T04:37:47;99022.36;;;12.01
75811;BMP280;64449;50.016;19.954;2023-05-07T04:40:13;99026.95;;;11.99
75811;BMP280;64449;50.016;19.954;2023-05-07T04:42:38;99032.02;;;11.98
75811;BMP280;64449;50.016;19.954;2023-05-07T04:45:04;99033.73;;;11.97
75811;BMP280;64449;50.016;19.954;2023-05-07T04:47:30;99040.58;;;11.97
75811;BMP280;64449;50.016;19.954;2023-05-07T04:49:55;99045.78;;;11.97
75811;BMP280;64449;50.016;19.954;2023-05-07T04:52:21;99043.77;;;11.96
75811;BMP280;64449;50.016;19.954;2023-05-07T04:54:46;99045.37;;;11.94
75811;BMP280;64449;50.016;19.954;2023-05-07T04:57:11;99050.45;;;11.92
75811;BMP280;64449;50.016;19.954;2023-05-07T04:59:37;99049.86;;;11.92
75811;BMP280;64449;50.016;19.954;2023-05-07T05:02:02;99052.70;;;11.91
75811;BMP280;64449;50.016;19.954;2023-05-07T05:04:29;99056.63;;;11.87
75811;BMP280;64449;50.016;19.954;2023-05-07T05:06:55;99059.05;;;11.83
75811;BMP280;64449;50.016;19.954;2023-05-07T05:09:20;99060.95;;;11.79
75811;BMP280;64449;50.016;19.954;2023-05-07T05:11:46;99067.01;;;11.78
75811;BMP280;64449;50.016;19.954;2023-05-07T05:14:11;99069.21;;;11.76
75811;BMP280;64449;50.016;19.954;2023-05-07T05:16:37;99070.44;;;11.76
75811;BMP280;64449;50.016;19.954;2023-05-07T05:19:02;99073.23;;;11.75
75811;BMP280;64449;50.016;19.954;2023-05-07T05:21:28;99077.98;;;11.74
75811;BMP280;64449;50.016;19.954;2023-05-07T05:23:53;99078.04;;;11.72
75811;BMP280;64449;50.016;19.954;2023-05-07T05:26:19;99080.57;;;11.68
75811;BMP280;64449;50.016;19.954;2023-05-07T05:28:46;99079.81;;;11.63
75811;BMP280;64449;50.016;19.954;2023-05-07T05:31:12;99081.37;;;11.59
75811;BMP280;64449;50.016;19.954;2023-05-07T05:33:37;99087.38;;;11.58
75811;BMP280;64449;50.016;19.954;2023-05-07T05:36:03;99091.75;;;11.57
75811;BMP280;64449;50.016;19.954;2023-05-07T05:38:29;99091.09;;;11.55
75811;BMP280;64449;50.016;19.954;2023-05-07T05:40:54;99092.17;;;11.56
75811;BMP280;64449;50.016;19.954;2023-05-07T05:43:20;99093.73;;;11.56
75811;BMP280;64449;50.016;19.954;2023-05-07T05:45:45;99097.04;;;11.58
75811;BMP280;64449;50.016;19.954;2023-05-07T05:48:11;99105.55;;;11.60
75811;BMP280;64449;50.016;19.954;2023-05-07T05:50:36;99107.31;;;11.62
75811;BMP280;64449;50.016;19.954;2023-05-07T05:53:02;99107.95;;;11.61
75811;BMP280;64449;50.016;19.954;2023-05-07T05:55:27;99110.73;;;11.62
75811;BMP280;64449;50.016;19.954;2023-05-07T05:57:53;99116.23;;;11.62
75811;BMP280;64449;50.016;19.954;2023-05-07T06:00:18;99119.27;;;11.61
75811;BMP280;64449;50.016;19.954;2023-05-07T06:02:44;99120.53;;;11.58
75811;BMP280;64449;50.016;19.954;2023-05-07T06:05:09;99126.84;;;11.57
75811;BMP280;64449;50.016;19.954;2023-05-07T06:07:35;99129.69;;;11.57
75811;BMP280;64449;50.016;19.954;2023-05-07T06:10:03;99130.20;;;11.56
75811;BMP280;64449;50.016;19.954;2023-05-07T06:12:29;99129.97;;;11.55
75811;BMP280;64449;50.016;19.954;2023-05-07T06:14:54;99137.67;;;11.54
75811;BMP280;64449;50.016;19.954;2023-05-07T06:17:20;99141.42;;;11.53
75811;BMP280;64449;50.016;19.954;2023-05-07T06:19:45;99143.27;;;11.51
75811;BMP280;64449;50.016;19.954;2023-05-07T06:22:11;99142.70;;;11.49
75811;BMP280;64449;50.016;19.954;2023-05-07T06:24:36;99145.70;;;11.45
75811;BMP280;64449;50.016;19.954;2023-05-07T06:27:01;99146.13;;;11.41
75811;BMP280;64449;50.016;19.954;2023-05-07T06:29:27;99145.40;;;11.40
75811;BMP280;64449;50.016;19.954;2023-05-07T06:31:53;99146.59;;;11.39
75811;BMP280;64449;50.016;19.954;2023-05-07T06:34:19;99149.47;;;11.38
75811;BMP280;64449;50.016;19.954;2023-05-07T06:36:44;99148.66;;;11.36
75811;BMP280;64449;50.016;19.954;2023-05-07T06:39:09;99144.89;;;11.35
75811;BMP280;64449;50.016;19.954;2023-05-07T06:41:35;99148.56;;;11.35
75811;BMP280;64449;50.016;19.954;2023-05-07T06:44:02;99152.02;;;11.35
75811;BMP280;64449;50.016;19.954;2023-05-07T06:46:28;99151.56;;;11.35
75811;BMP280;64449;50.016;19.954;2023-05-07T06:48:54;99155.74;;;11.36
75811;BMP280;64449;50.016;19.954;2023-05-07T06:51:19;99158.40;;;11.35
75811;BMP280;64449;50.016;19.954;2023-05-07T06:53:44;99159.16;;;11.36
75811;BMP280;64449;50.016;19.954;2023-05-07T06:56:10;99158.17;;;11.36
75811;BMP280;64449;50.016;19.954;2023-05-07T06:58:36;99158.77;;;11.38
75811;BMP280;64449;50.016;19.954;2023-05-07T07:01:01;99163.13;;;11.38
75811;BMP280;64449;50.016;19.954;2023-05-07T07:03:27;99163.19;;;11.40
75811;BMP280;64449;50.016;19.954;2023-05-07T07:05:53;99165.16;;;11.40
75811;BMP280;64449;50.016;19.954;2023-05-07T07:08:18;99167.81;;;11.42
75811;BMP280;64449;50.016;19.954;2023-05-07T07:10:46;99169.65;;;11.44
75811;BMP280;64449;50.016;19.954;2023-05-07T07:13:12;99173.88;;;11.46
75811;BMP280;64449;50.016;19.954;2023-05-07T07:15:38;99175.86;;;11.48
75811;BMP280;64449;50.016;19.954;2023-05-07T07:18:04;99179.27;;;11.51
75811;BMP280;64449;50.016;19.954;2023-05-07T07:20:29;99180.49;;;11.54
75811;BMP280;64449;50.016;19.954;2023-05-07T07:22:54;99184.38;;;11.57
75811;BMP280;64449;50.016;19.954;2023-05-07T07:25:20;99189.91;;;11.60
75811;BMP280;64449;50.016;19.954;2023-05-07T07:27:45;99192.70;;;11.61
75811;BMP280;64449;50.016;19.954;2023-05-07T07:30:11;99196.44;;;11.62
75811;BMP280;64449;50.016;19.954;2023-05-07T07:32:37;99197.45;;;11.63
75811;BMP280;64449;50.016;19.954;2023-05-07T07:35:03;99199.99;;;11.63
75811;BMP280;64449;50.016;19.954;2023-05-07T07:37:28;99205.08;;;11.60
75811;BMP280;64449;50.016;19.954;2023-05-07T07:39:55;99210.90;;;11.57
75811;BMP280;64449;50.016;19.954;2023-05-07T07:42:20;99214.59;;;11.56
75811;BMP280;64449;50.016;19.954;2023-05-07T07:44:45;99217.90;;;11.56
75811;BMP280;64449;50.016;19.954;2023-05-07T07:47:11;99219.83;;;11.57
75811;BMP280;64449;50.016;19.954;2023-05-07T07:49:36;99223.30;;;11.59
75811;BMP280;64449;50.016;19.954;2023-05-07T07:52:02;99225.15;;;11.61
75811;BMP280;64449;50.016;19.954;2023-05-07T07:54:27;99224.39;;;11.63
75811;BMP280;64449;50.016;19.954;2023-05-07T07:56:54;99224.25;;;11.64
75811;BMP280;64449;50.016;19.954;2023-05-07T07:59:20;99227.02;;;11.67
75811;BMP280;64449;50.016;19.954;2023-05-07T08:01:45;99229.15;;;11.69
75811;BMP280;64449;50.016;19.954;2023-05-07T08:04:10;99232.19;;;11.71
75811;BMP280;64449;50.016;19.954;2023-05-07T08:06:36;99232.74;;;11.71
75811;BMP280;64449;50.016;19.954;2023-05-07T08:09:02;99236.25;;;11.70
75811;BMP280;64449;50.016;19.954;2023-05-07T08:11:28;99238.68;;;11.73
75811;BMP280;64449;50.016;19.954;2023-05-07T08:13:54;99238.14;;;11.73
75811;BMP280;64449;50.016;19.954;2023-05-07T08:16:20;99243.48;;;11.70
75811;BMP280;64449;50.016;19.954;2023-05-07T08:18:45;99245.39;;;11.67
75811;BMP280;64449;50.016;19.954;2023-05-07T08:21:11;99249.27;;;11.65
75811;BMP280;64449;50.016;19.954;2023-05-07T08:23:36;99254.97;;;11.64
75811;BMP280;64449;50.016;19.954;2023-05-07T08:26:02;99256.42;;;11.61
75811;BMP280;64449;50.016;19.954;2023-05-07T08:28:27;99259.73;;;11.58
75811;BMP280;64449;50.016;19.954;2023-05-07T08:30:52;99262.24;;;11.56
75811;BMP280;64449;50.016;19.954;2023-05-07T08:33:18;99265.56;;;11.57
75811;BMP280;64449;50.016;19.954;2023-05-07T08:35:43;99269.97;;;11.56
75811;BMP280;64449;50.016;19.954;2023-05-07T08:38:09;99276.74;;;11.57
75811;BMP280;64449;50.016;19.954;2023-05-07T08:40:38;99279.55;;;11.55
75811;BMP280;64449;50.016;19.954;2023-05-07T08:43:07;99284.90;;;11.54
75811;BMP280;64449;50.016;19.954;2023-05-07T08:45:34;99283.09;;;11.51
75811;BMP280;64449;50.016;19.954;2023-05-07T08:48:02;99287.08;;;11.47
75811;BMP280;64449;50.016;19.954;2023-05-07T08:50:30;99288.13;;;11.40
75811;BMP280;64449;50.016;19.954;2023-05-07T08:52:56;99288.77;;;11.33
75811;BMP280;64449;50.016;19.954;2023-05-07T08:55:22;99290.59;;;11.34
75811;BMP280;64449;50.016;19.954;2023-05-07T08:57:50;99293.90;;;11.32
75811;BMP280;64449;50.016;19.954;2023-05-07T09:00:17;99296.75;;;11.33
75811;BMP280;64449;50.016;19.954;2023-05-07T09:02:43;99298.91;;;11.36
75811;BMP280;64449;50.016;19.954;2023-05-07T09:05:08;99297.05;;;11.39
75811;BMP280;64449;50.016;19.954;2023-05-07T09:07:34;99297.21;;;11.42
75811;BMP280;64449;50.016;19.954;2023-05-07T09:10:04;99299.86;;;11.44
75811;BMP280;64449;50.016;19.954;2023-05-07T09:12:30;99300.70;;;11.47
75811;BMP280;64449;50.016;19.954;2023-05-07T09:14:56;99303.65;;;11.51
75811;BMP280;64449;50.016;19.954;2023-05-07T09:17:21;99308.09;;;11.50
75811;BMP280;64449;50.016;19.954;2023-05-07T09:19:47;99310.00;;;11.51
75811;BMP280;64449;50.016;19.954;2023-05-07T09:22:13;99314.27;;;11.52
75811;BMP280;64449;50.016;19.954;2023-05-07T09:24:39;99319.17;;;11.53
75811;BMP280;64449;50.016;19.954;2023-05-07T09:27:05;99324.91;;;11.51
75811;BMP280;64449;50.016;19.954;2023-05-07T09:29:31;99327.55;;;11.51
75811;BMP280;64449;50.016;19.954;2023-05-07T09:32:06;99330.45;;;11.51
75811;BMP280;64449;50.016;19.954;2023-05-07T09:34:33;99331.01;;;11.50
75811;BMP280;64449;50.016;19.954;2023-05-07T09:37:00;99334.96;;;11.49
75811;BMP280;64449;50.016;19.954;2023-05-07T09:39:26;99335.52;;;11.50
75811;BMP280;64449;50.016;19.954;2023-05-07T09:41:51;99332.74;;;11.49
75811;BMP280;64449;50.016;19.954;2023-05-07T09:44:20;99331.77;;;11.52
75811;BMP280;64449;50.016;19.954;2023-05-07T09:46:47;99337.41;;;11.55
75811;BMP280;64449;50.016;19.954;2023-05-07T09:49:21;99342.74;;;11.60
75811;BMP280;64449;50.016;19.954;2023-05-07T09:51:49;99344.19;;;11.62
75811;BMP280;64449;50.016;19.954;2023-05-07T09:54:16;99343.14;;;11.64
75811;BMP280;64449;50.016;19.954;2023-05-07T09:56:43;99347.81;;;11.65
75811;BMP280;64449;50.016;19.954;2023-05-07T09:59:13;99349.59;;;11.69
75811;BMP280;64449;50.016;19.954;2023-05-07T10:01:40;99352.08;;;11.69
75811;BMP280;64449;50.016;19.954;2023-05-07T10:04:06;99353.83;;;11.70
75811;BMP280;64449;50.016;19.954;2023-05-07T10:06:35;99354.13;;;11.71
75811;BMP280;64449;50.016;19.954;2023-05-07T10:09:02;99355.05;;;11.68
75811;BMP280;64449;50.016;19.954;2023-05-07T10:11:28;99355.16;;;11.62
75811;BMP280;64449;50.016;19.954;2023-05-07T10:13:53;99356.36;;;11.58
75811;BMP280;64449;50.016;19.954;2023-05-07T10:16:20;99361.11;;;11.57
75811;BMP280;64449;50.016;19.954;2023-05-07T10:18:46;99364.27;;;11.61
75811;BMP280;64449;50.016;19.954;2023-05-07T10:21:19;99366.35;;;11.65
75811;BMP280;64449;50.016;19.954;2023-05-07T10:23:49;99370.74;;;11.69
75811;BMP280;64449;50.016;19.954;2023-05-07T10:26:15;99370.98;;;11.69
75811;BMP280;64449;50.016;19.954;2023-05-07T10:28:44;99372.68;;;11.68
75811;BMP280;64449;50.016;19.954;2023-05-07T10:33:44;99372.95;;;11.72
75811;BMP280;64449;50.016;19.954;2023-05-07T10:36:11;99378.17;;;11.73
75811;BMP280;64449;50.016;19.954;2023-05-07T10:38:37;99380.58;;;11.74
75811;BMP280;64449;50.016;19.954;2023-05-07T10:41:03;99385.77;;;11.77
75811;BMP280;64449;50.016;19.954;2023-05-07T10:43:43;99391.17;;;11.75
75811;BMP280;64449;50.016;19.954;2023-05-07T10:46:14;99395.98;;;11.73
75811;BMP280;64449;50.016;19.954;2023-05-07T10:51:26;99391.85;;;11.73
75811;BMP280;64449;50.016;19.954;2023-05-07T10:56:43;99395.13;;;11.71
75811;BMP280;64449;50.016;19.954;2023-05-07T11:04:17;99399.80;;;11.62
75811;BMP280;64449;50.016;19.954;2023-05-07T11:07:25;99405.80;;;11.59
75811;BMP280;64449;50.016;19.954;2023-05-07T11:13:02;99407.41;;;11.63
75811;BMP280;64449;50.016;19.954;2023-05-07T11:15:10;99408.92;;;11.67
75811;BMP280;64449;50.016;19.954;2023-05-07T11:17:56;99405.51;;;11.67
75811;BMP280;64449;50.016;19.954;2023-05-07T11:20:44;99409.15;;;11.70
75811;BMP280;64449;50.016;19.954;2023-05-07T11:26:00;99409.27;;;11.73
75811;BMP280;64449;50.016;19.954;2023-05-07T11:28:28;99408.05;;;11.72
75811;BMP280;64449;50.016;19.954;2023-05-07T11:30:53;99410.49;;;11.72
75811;BMP280;64449;50.016;19.954;2023-05-07T11:33:19;99411.34;;;11.75
75811;BMP280;64449;50.016;19.954;2023-05-07T11:35:45;99411.36;;;11.75
75811;BMP280;64449;50.016;19.954;2023-05-07T11:38:12;99413.88;;;11.73
75811;BMP280;64449;50.016;19.954;2023-05-07T11:40:50;99413.08;;;11.76
75811;BMP280;64449;50.016;19.954;2023-05-07T11:43:16;99415.55;;;11.79
75811;BMP280;64449;50.016;19.954;2023-05-07T11:45:42;99418.54;;;11.81
75811;BMP280;64449;50.016;19.954;2023-05-07T11:48:07;99419.92;;;11.83
75811;BMP280;64449;50.016;19.954;2023-05-07T11:50:33;99421.21;;;11.80
75811;BMP280;64449;50.016;19.954;2023-05-07T11:52:58;99423.88;;;11.74
75811;BMP280;64449;50.016;19.954;2023-05-07T11:55:24;99426.70;;;11.72
75811;BMP280;64449;50.016;19.954;2023-05-07T11:57:51;99428.80;;;11.67
75811;BMP280;64449;50.016;19.954;2023-05-07T12:00:17;99427.86;;;11.60
75811;BMP280;64449;50.016;19.954;2023-05-07T12:02:45;99431.13;;;11.57
75811;BMP280;64449;50.016;19.954;2023-05-07T12:05:10;99435.16;;;11.57
75811;BMP280;64449;50.016;19.954;2023-05-07T12:07:36;99439.50;;;11.58
75811;BMP280;64449;50.016;19.954;2023-05-07T12:10:08;99437.88;;;11.60
75811;BMP280;64449;50.016;19.954;2023-05-07T12:12:40;99437.30;;;11.60
75811;BMP280;64449;50.016;19.954;2023-05-07T12:15:08;99440.10;;;11.59
75811;BMP280;64449;50.016;19.954;2023-05-07T12:17:33;99436.77;;;11.59
75811;BMP280;64449;50.016;19.954;2023-05-07T12:20:00;99434.54;;;11.58
75811;BMP280;64449;50.016;19.954;2023-05-07T12:22:26;99440.61;;;11.58
75811;BMP280;64449;50.016;19.954;2023-05-07T12:24:58;99440.70;;;11.54
75811;BMP280;64449;50.016;19.954;2023-05-07T12:27:25;99443.47;;;11.50
75811;BMP280;64449;50.016;19.954;2023-05-07T12:29:51;99447.04;;;11.49
75811;BMP280;64449;50.016;19.954;2023-05-07T12:32:18;99448.60;;;11.50
75811;BMP280;64449;50.016;19.954;2023-05-07T12:34:45;99448.52;;;11.51
75811;BMP280;64449;50.016;19.954;2023-05-07T12:37:10;99450.83;;;11.50
75811;BMP280;64449;50.016;19.954;2023-05-07T12:39:36;99451.54;;;11.48
75811;BMP280;64449;50.016;19.954;2023-05-07T12:42:01;99451.17;;;11.48
75811;BMP280;64449;50.016;19.954;2023-05-07T12:44:32;99451.41;;;11.49
75811;BMP280;64449;50.016;19.954;2023-05-07T12:46:58;99454.34;;;11.49
75811;BMP280;64449;50.016;19.954;2023-05-07T12:49:23;99455.20;;;11.44
75811;BMP280;64449;50.016;19.954;2023-05-07T12:51:50;99454.26;;;11.40
75811;BMP280;64449;50.016;19.954;2023-05-07T12:54:33;99458.93;;;11.38
75811;BMP280;64449;50.016;19.954;2023-05-07T12:57:07;99459.61;;;11.32
75811;BMP280;64449;50.016;19.954;2023-05-07T12:59:39;99459.93;;;11.26
75811;BMP280;64449;50.016;19.954;2023-05-07T13:02:05;99460.71;;;11.23
75811;BMP280;64449;50.016;19.954;2023-05-07T13:04:31;99462.89;;;11.23
75811;BMP280;64449;50.016;19.954;2023-05-07T13:06:56;99463.53;;;11.19
75811;BMP280;64449;50.016;19.954;2023-05-07T13:09:21;99465.06;;;11.20
75811;BMP280;64449;50.016;19.954;2023-05-07T13:11:47;99467.08;;;11.25
75811;BMP280;64449;50.016;19.954;2023-05-07T13:14:12;99469.94;;;11.29
75811;BMP280;64449;50.016;19.954;2023-05-07T13:16:38;99473.05;;;11.31
75811;BMP280;64449;50.016;19.954;2023-05-07T13:19:03;99474.77;;;11.35
75811;BMP280;64449;50.016;19.954;2023-05-07T13:21:29;99471.91;;;11.33
75811;BMP280;64449;50.016;19.954;2023-05-07T13:23:57;99472.34;;;11.33
75811;BMP280;64449;50.016;19.954;2023-05-07T13:26:23;99474.07;;;11.31
75811;BMP280;64449;50.016;19.954;2023-05-07T13:28:48;99474.31;;;11.28
75811;BMP280;64449;50.016;19.954;2023-05-07T13:31:14;99474.90;;;11.27
75811;BMP280;64449;50.016;19.954;2023-05-07T13:33:39;99474.99;;;11.22
75811;BMP280;64449;50.016;19.954;2023-05-07T13:36:05;99474.15;;;11.24
75811;BMP280;64449;50.016;19.954;2023-05-07T13:38:31;99477.40;;;11.23
75811;BMP280;64449;50.016;19.954;2023-05-07T13:40:57;99479.64;;;11.18
75811;BMP280;64449;50.016;19.954;2023-05-07T13:43:24;99474.88;;;11.15
75811;BMP280;64449;50.016;19.954;2023-05-07T13:45:50;99474.19;;;11.11
75811;BMP280;64449;50.016;19.954;2023-05-07T13:48:15;99473.80;;;11.05
75811;BMP280;64449;50.016;19.954;2023-05-07T13:50:40;99474.10;;;11.03
75811;BMP280;64449;50.016;19.954;2023-05-07T13:53:07;99474.80;;;11.03
75811;BMP280;64449;50.016;19.954;2023-05-07T13:55:33;99477.23;;;11.01
75811;BMP280;64449;50.016;19.954;2023-05-07T13:58:00;99475.60;;;11.00
75811;BMP280;64449;50.016;19.954;2023-05-07T14:00:27;99478.95;;;11.04
75811;BMP280;64449;50.016;19.954;2023-05-07T14:02:53;99477.29;;;11.05
75811;BMP280;64449;50.016;19.954;2023-05-07T14:05:20;99475.38;;;11.09
75811;BMP280;64449;50.016;19.954;2023-05-07T14:07:46;99479.16;;;11.17
75811;BMP280;64449;50.016;19.954;2023-05-07T14:10:12;99481.48;;;11.19